createdAt,value
2016-03-17T00:00:09.415Z,0
2016-03-17T00:01:09.403Z,0
2016-03-17T00:02:09.421Z,0
2016-03-17T00:03:09.361Z,0
2016-03-17T00:04:09.364Z,0
2016-03-17T00:05:09.367Z,0
2016-03-17T00:06:09.338Z,0
2016-03-17T00:07:09.606Z,0
2016-03-17T00:08:09.921Z,0
2016-03-17T00:09:09.611Z,0
2016-03-17T00:10:09.286Z,0
2016-03-17T00:11:10.210Z,0
2016-03-17T00:12:09.338Z,0
2016-03-17T00:13:09.247Z,0
2016-03-17T00:14:09.235Z,0
2016-03-17T00:15:09.205Z,0
2016-03-17T00:16:11.536Z,0
2016-03-17T00:17:10.461Z,0
2016-03-17T00:18:09.182Z,0
2016-03-17T00:19:10.155Z,0
2016-03-17T00:20:09.985Z,0
2016-03-17T00:21:09.597Z,0
2016-03-17T00:22:10.413Z,0
2016-03-17T00:23:09.837Z,0
2016-03-17T00:24:09.605Z,0
2016-03-17T00:25:09.093Z,0
2016-03-17T00:26:09.438Z,0
2016-03-17T00:27:09.581Z,0
2016-03-17T00:28:09.428Z,0
2016-03-17T00:29:09.056Z,0
2016-03-17T00:30:09.028Z,0
2016-03-17T00:31:09.015Z,0
2016-03-17T00:32:09.923Z,0
2016-03-17T00:33:09.067Z,0
2016-03-17T00:34:09.491Z,0
2016-03-17T00:35:09.462Z,0
2016-03-17T00:36:08.997Z,0
2016-03-17T00:37:09.031Z,0
2016-03-17T00:38:09.159Z,0
2016-03-17T00:39:08.942Z,0
2016-03-17T00:40:08.930Z,0
2016-03-17T00:41:08.885Z,0
2016-03-17T00:42:08.872Z,0
2016-03-17T00:43:08.858Z,0
2016-03-17T00:44:08.877Z,0
2016-03-17T00:45:08.842Z,0
2016-03-17T00:46:08.844Z,0
2016-03-17T00:47:08.863Z,0
2016-03-17T00:48:08.803Z,0
2016-03-17T00:49:08.806Z,0
2016-03-17T00:50:08.856Z,0
2016-03-17T00:51:08.780Z,0
2016-03-17T00:52:08.752Z,0
2016-03-17T00:53:08.739Z,0
2016-03-17T00:54:08.741Z,0
2016-03-17T00:55:08.713Z,0
2016-03-17T00:56:08.731Z,0
2016-03-17T00:57:08.703Z,0
2016-03-17T00:58:08.689Z,0
2016-03-17T00:59:07.927Z,0
2016-03-17T01:00:08.664Z,0
2016-03-17T01:01:08.635Z,0
2016-03-17T01:02:08.669Z,0
2016-03-17T01:03:08.610Z,0
2016-03-17T01:04:08.612Z,0
2016-03-17T01:05:08.583Z,0
2016-03-17T01:06:08.586Z,0
2016-03-17T01:07:08.584Z,0
2016-03-17T01:08:08.571Z,0
2016-03-17T01:09:08.558Z,0
2016-03-17T01:10:08.529Z,0
2016-03-17T01:11:08.532Z,0
2016-03-17T01:12:08.551Z,0
2016-03-17T01:13:08.507Z,0
2016-03-17T01:14:08.509Z,0
2016-03-17T01:15:08.465Z,0
2016-03-17T01:16:08.498Z,0
2016-03-17T01:17:08.299Z,0
2016-03-17T01:18:08.442Z,0
2016-03-17T01:19:08.429Z,0
2016-03-17T01:20:08.416Z,0
2016-03-17T01:21:08.387Z,0
2016-03-17T01:22:08.375Z,0
2016-03-17T01:23:08.392Z,0
2016-03-17T01:24:08.208Z,0
2016-03-17T01:25:08.383Z,0
2016-03-17T01:26:08.807Z,0
2016-03-17T01:27:09.450Z,0
2016-03-17T01:28:09.422Z,0
2016-03-17T01:29:08.909Z,0
2016-03-17T01:30:08.989Z,0
2016-03-17T01:31:08.836Z,0
2016-03-17T01:32:08.291Z,0
2016-03-17T01:33:08.247Z,0
2016-03-17T01:34:08.203Z,0
2016-03-17T01:35:09.955Z,0
2016-03-17T01:36:09.568Z,0
2016-03-17T01:37:08.211Z,0
2016-03-17T01:38:09.527Z,0
2016-03-17T01:39:09.280Z,0
2016-03-17T01:40:08.845Z,0
2016-03-17T01:41:22.972Z,0
2016-03-17T01:42:10.257Z,0
2016-03-17T01:43:09.666Z,0
2016-03-17T01:44:08.699Z,0
2016-03-17T01:45:08.093Z,0
2016-03-17T01:46:22.252Z,0
2016-03-17T01:47:08.082Z,0
2016-03-17T01:48:08.054Z,0
2016-03-17T01:49:08.243Z,0
2016-03-17T01:50:08.028Z,0
2016-03-17T01:51:10.062Z,0
2016-03-17T01:52:09.018Z,0
2016-03-17T01:53:09.099Z,0
2016-03-17T01:54:08.804Z,0
2016-03-17T01:55:08.495Z,0
2016-03-17T01:56:08.060Z,0
2016-03-17T01:57:07.937Z,0
2016-03-17T01:58:08.050Z,0
2016-03-17T01:59:07.911Z,0
2016-03-17T02:00:07.915Z,0
2016-03-17T02:01:07.870Z,0
2016-03-17T02:02:07.889Z,0
2016-03-17T02:03:07.860Z,0
2016-03-17T02:04:07.847Z,0
2016-03-17T02:05:07.849Z,0
2016-03-17T02:06:07.852Z,0
2016-03-17T02:07:07.824Z,0
2016-03-17T02:08:07.810Z,0
2016-03-17T02:09:07.782Z,0
2016-03-17T02:10:07.785Z,0
2016-03-17T02:11:07.772Z,0
2016-03-17T02:12:07.774Z,0
2016-03-17T02:13:07.731Z,0
2016-03-17T02:14:07.749Z,0
2016-03-17T02:15:07.705Z,0
2016-03-17T02:16:07.708Z,0
2016-03-17T02:17:07.679Z,0
2016-03-17T02:18:07.666Z,0
2016-03-17T02:19:07.668Z,0
2016-03-17T02:20:07.640Z,0
2016-03-17T02:21:07.674Z,0
2016-03-17T02:22:07.629Z,0
2016-03-17T02:23:07.586Z,0
2016-03-17T02:24:07.604Z,0
2016-03-17T02:25:07.591Z,0
2016-03-17T02:26:07.594Z,0
2016-03-17T02:27:07.565Z,0
2016-03-17T02:28:07.568Z,0
2016-03-17T02:29:07.539Z,0
2016-03-17T02:30:07.511Z,0
2016-03-17T02:31:07.529Z,0
2016-03-17T02:32:07.485Z,0
2016-03-17T02:33:07.472Z,0
2016-03-17T02:34:07.475Z,0
2016-03-17T02:35:07.477Z,0
2016-03-17T02:36:07.464Z,0
2016-03-17T02:37:07.436Z,0
2016-03-17T02:38:07.408Z,0
2016-03-17T02:39:07.411Z,0
2016-03-17T02:40:07.397Z,0
2016-03-17T02:41:07.400Z,0
2016-03-17T02:42:07.402Z,0
2016-03-17T02:43:07.358Z,0
2016-03-17T02:44:07.330Z,0
2016-03-17T02:45:08.191Z,0
2016-03-17T02:46:08.772Z,0
2016-03-17T02:47:08.572Z,0
2016-03-17T02:48:08.138Z,0
2016-03-17T02:49:07.562Z,0
2016-03-17T02:50:08.033Z,0
2016-03-17T02:51:07.240Z,0
2016-03-17T02:52:07.398Z,0
2016-03-17T02:53:07.246Z,0
2016-03-17T02:55:08.438Z,0
2016-03-17T02:56:07.237Z,0
2016-03-17T02:57:08.490Z,0
2016-03-17T02:58:08.164Z,0
2016-03-17T02:59:07.715Z,0
2016-03-17T03:00:21.482Z,0
2016-03-17T03:01:07.656Z,0
2016-03-17T03:02:07.112Z,0
2016-03-17T03:03:21.740Z,0
2016-03-17T03:04:07.134Z,0
2016-03-17T03:05:07.637Z,0
2016-03-17T03:06:07.248Z,0
2016-03-17T03:07:07.033Z,0
2016-03-17T03:08:07.020Z,0
2016-03-17T03:09:07.023Z,0
2016-03-17T03:10:07.305Z,0
2016-03-17T03:11:09.121Z,0
2016-03-17T03:12:06.983Z,0
2016-03-17T03:13:06.986Z,0
2016-03-17T03:14:07.097Z,0
2016-03-17T03:15:07.022Z,0
2016-03-17T03:16:06.946Z,0
2016-03-17T03:17:06.949Z,0
2016-03-17T03:18:06.905Z,0
2016-03-17T03:19:06.893Z,0
2016-03-17T03:20:06.879Z,0
2016-03-17T03:21:06.882Z,0
2016-03-17T03:22:06.838Z,0
2016-03-17T03:23:06.857Z,0
2016-03-17T03:24:06.829Z,0
2016-03-17T03:25:06.832Z,0
2016-03-17T03:26:06.787Z,0
2016-03-17T03:27:06.790Z,0
2016-03-17T03:28:06.760Z,0
2016-03-17T03:29:06.763Z,0
2016-03-17T03:30:06.751Z,0
2016-03-17T03:31:06.737Z,0
2016-03-17T03:32:06.725Z,0
2016-03-17T03:33:06.727Z,0
2016-03-17T03:34:06.714Z,0
2016-03-17T03:35:06.545Z,0
2016-03-17T03:36:06.673Z,0
2016-03-17T03:37:06.645Z,0
2016-03-17T03:38:06.650Z,0
2016-03-17T03:39:06.594Z,0
2016-03-17T03:40:06.585Z,0
2016-03-17T03:41:06.575Z,0
2016-03-17T03:42:06.533Z,0
2016-03-17T03:43:06.485Z,0
2016-03-17T03:44:06.499Z,0
2016-03-17T03:45:06.467Z,0
2016-03-17T03:46:06.480Z,0
2016-03-17T03:47:06.447Z,0
2016-03-17T03:48:06.418Z,0
2016-03-17T03:49:06.403Z,0
2016-03-17T03:50:06.404Z,0
2016-03-17T03:51:06.374Z,0
2016-03-17T03:52:06.345Z,0
2016-03-17T03:53:06.347Z,0
2016-03-17T03:54:06.364Z,0
2016-03-17T03:55:06.319Z,0
2016-03-17T03:56:06.322Z,0
2016-03-17T03:57:06.291Z,0
2016-03-17T03:58:06.294Z,0
2016-03-17T03:59:06.282Z,0
2016-03-17T04:00:06.269Z,0
2016-03-17T04:01:06.240Z,0
2016-03-17T04:02:06.258Z,0
2016-03-17T04:03:06.354Z,0
2016-03-17T04:05:07.281Z,0
2016-03-17T04:06:07.581Z,0
2016-03-17T04:07:07.287Z,0
2016-03-17T04:08:06.430Z,0
2016-03-17T04:09:06.917Z,0
2016-03-17T04:10:06.123Z,0
2016-03-17T04:11:06.267Z,0
2016-03-17T04:12:06.098Z,0
2016-03-17T04:13:06.100Z,0
2016-03-17T04:14:07.369Z,0
2016-03-17T04:15:06.278Z,0
2016-03-17T04:16:07.327Z,0
2016-03-17T04:17:06.064Z,0
2016-03-17T04:18:06.473Z,0
2016-03-17T04:19:06.741Z,0
2016-03-17T04:20:07.181Z,0
2016-03-17T04:21:06.855Z,0
2016-03-17T04:22:05.968Z,0
2016-03-17T04:23:06.299Z,0
2016-03-17T04:24:20.333Z,0
2016-03-17T04:25:05.961Z,0
2016-03-17T04:26:06.072Z,0
2016-03-17T04:27:05.904Z,0
2016-03-17T04:28:05.875Z,0
2016-03-17T04:29:06.863Z,0
2016-03-17T04:30:05.880Z,0
2016-03-17T04:31:06.102Z,0
2016-03-17T04:32:06.245Z,0
2016-03-17T04:33:05.951Z,0
2016-03-17T04:34:05.828Z,0
2016-03-17T04:35:05.815Z,0
2016-03-17T04:36:06.053Z,0
2016-03-17T04:37:05.789Z,0
2016-03-17T04:38:05.776Z,0
2016-03-17T04:39:05.748Z,0
2016-03-17T04:40:05.735Z,0
2016-03-17T04:41:05.738Z,0
2016-03-17T04:42:05.726Z,0
2016-03-17T04:43:05.697Z,0
2016-03-17T04:44:05.668Z,0
2016-03-17T04:45:05.655Z,0
2016-03-17T04:46:05.689Z,0
2016-03-17T04:47:05.645Z,0
2016-03-17T04:48:05.679Z,0
2016-03-17T04:49:05.603Z,0
2016-03-17T04:50:05.606Z,0
2016-03-17T04:51:05.593Z,0
2016-03-17T04:52:05.580Z,0
2016-03-17T04:53:05.566Z,0
2016-03-17T04:54:05.413Z,0
2016-03-17T04:55:05.525Z,0
2016-03-17T04:56:05.528Z,0
2016-03-17T04:57:05.499Z,0
2016-03-17T04:58:05.503Z,0
2016-03-17T04:59:05.490Z,0
2016-03-17T05:00:05.477Z,0
2016-03-17T05:01:05.463Z,0
2016-03-17T05:02:05.435Z,0
2016-03-17T05:03:05.469Z,5
2016-03-17T05:04:05.424Z,5
2016-03-17T05:05:05.396Z,5
2016-03-17T05:06:05.415Z,5
2016-03-17T05:07:05.354Z,5
2016-03-17T05:08:05.357Z,5
2016-03-17T05:09:05.344Z,5
2016-03-17T05:10:05.347Z,10
2016-03-17T05:11:05.350Z,10
2016-03-17T05:12:05.321Z,10
2016-03-17T05:13:05.309Z,10
2016-03-17T05:14:05.265Z,10
2016-03-17T05:15:05.283Z,15
2016-03-17T05:16:05.269Z,15
2016-03-17T05:17:05.273Z,15
2016-03-17T05:18:05.369Z,20
2016-03-17T05:19:05.215Z,20
2016-03-17T05:20:05.186Z,20
2016-03-17T05:21:05.205Z,25
2016-03-17T05:22:05.161Z,25
2016-03-17T05:23:05.633Z,25
2016-03-17T05:24:06.667Z,30
2016-03-17T05:25:05.169Z,30
2016-03-17T05:26:05.109Z,30
2016-03-17T05:27:05.924Z,35
2016-03-17T05:28:05.443Z,35
2016-03-17T05:29:05.086Z,40
2016-03-17T05:30:05.073Z,40
2016-03-17T05:31:05.216Z,40
2016-03-17T05:32:05.046Z,45
2016-03-17T05:33:06.644Z,45
2016-03-17T05:34:05.834Z,50
2016-03-17T05:35:05.008Z,50
2016-03-17T05:36:05.652Z,55
2016-03-17T05:37:05.904Z,60
2016-03-17T05:38:19.360Z,65
2016-03-17T05:39:07.426Z,70
2016-03-17T05:40:06.725Z,75
2016-03-17T05:41:05.571Z,80
2016-03-17T05:42:04.902Z,80
2016-03-17T05:43:04.921Z,85
2016-03-17T05:44:05.157Z,90
2016-03-17T05:45:04.879Z,95
2016-03-17T05:46:04.850Z,95
2016-03-17T05:47:04.869Z,95
2016-03-17T05:48:20.512Z,105
2016-03-17T05:49:05.749Z,105
2016-03-17T05:50:04.673Z,110
2016-03-17T05:51:04.816Z,115
2016-03-17T05:52:04.772Z,115
2016-03-17T05:53:04.791Z,125
2016-03-17T05:54:04.919Z,130
2016-03-17T05:55:04.766Z,135
2016-03-17T05:56:04.736Z,140
2016-03-17T05:57:04.739Z,145
2016-03-17T05:58:04.726Z,150
2016-03-17T05:59:04.744Z,155
2016-03-17T06:00:04.700Z,160
2016-03-17T06:01:04.688Z,170
2016-03-17T06:02:04.519Z,170
2016-03-17T06:03:04.787Z,175
2016-03-17T06:04:04.665Z,180
2016-03-17T06:05:04.668Z,185
2016-03-17T06:06:04.671Z,195
2016-03-17T06:07:04.673Z,200
2016-03-17T06:08:04.613Z,205
2016-03-17T06:09:04.599Z,210
2016-03-17T06:10:04.602Z,215
2016-03-17T06:11:04.605Z,220
2016-03-17T06:12:04.607Z,225
2016-03-17T06:13:04.595Z,235
2016-03-17T06:14:04.612Z,245
2016-03-17T06:15:04.554Z,255
2016-03-17T06:16:04.572Z,255
2016-03-17T06:17:04.559Z,255
2016-03-17T06:18:04.609Z,260
2016-03-17T06:19:04.533Z,270
2016-03-17T06:20:04.551Z,285
2016-03-17T06:21:04.523Z,285
2016-03-17T06:22:04.525Z,295
2016-03-17T06:23:04.528Z,295
2016-03-17T06:24:04.499Z,300
2016-03-17T06:25:04.486Z,300
2016-03-17T06:26:04.488Z,300
2016-03-17T06:27:11.272Z,310
2016-03-17T06:28:04.510Z,320
2016-03-17T06:29:04.481Z,335
2016-03-17T06:30:04.485Z,335
2016-03-17T06:31:04.455Z,350
2016-03-17T06:32:04.490Z,355
2016-03-17T06:33:04.477Z,360
2016-03-17T06:34:04.480Z,375
2016-03-17T06:35:04.451Z,405
2016-03-17T06:36:04.469Z,415
2016-03-17T06:37:08.335Z,415
2016-03-17T06:38:04.610Z,430
2016-03-17T06:39:04.285Z,430
2016-03-17T06:40:07.562Z,415
2016-03-17T06:41:04.455Z,425
2016-03-17T06:42:07.802Z,445
2016-03-17T06:43:05.867Z,465
2016-03-17T06:44:04.275Z,475
2016-03-17T06:45:04.450Z,500
2016-03-17T06:46:04.422Z,505
2016-03-17T06:47:04.440Z,495
2016-03-17T06:48:05.052Z,475
2016-03-17T06:49:04.414Z,455
2016-03-17T06:50:04.436Z,455
2016-03-17T06:51:04.438Z,465
2016-03-17T06:52:07.129Z,475
2016-03-17T06:53:06.507Z,475
2016-03-17T06:54:05.602Z,475
2016-03-17T06:55:04.449Z,480
2016-03-17T06:56:05.076Z,495
2016-03-17T06:57:06.282Z,515
2016-03-17T06:58:04.770Z,535
2016-03-17T06:59:04.818Z,555
2016-03-17T07:00:04.416Z,575
2016-03-17T07:01:05.356Z,575
2016-03-17T07:02:05.076Z,575
2016-03-17T07:03:04.439Z,580
2016-03-17T07:04:04.442Z,585
2016-03-17T07:05:04.445Z,605
2016-03-17T07:06:04.416Z,615
2016-03-17T07:07:06.090Z,610
2016-03-17T07:08:05.078Z,605
2016-03-17T07:09:05.815Z,600
2016-03-17T07:10:04.428Z,620
2016-03-17T07:11:04.851Z,635
2016-03-17T07:12:04.433Z,635
2016-03-17T07:13:04.967Z,640
2016-03-17T07:14:04.422Z,700
2016-03-17T07:15:04.425Z,785
2016-03-17T07:16:04.443Z,840
2016-03-17T07:17:04.414Z,865
2016-03-17T07:18:04.433Z,875
2016-03-17T07:19:04.452Z,870
2016-03-17T07:20:04.469Z,885
2016-03-17T07:21:04.425Z,925
2016-03-17T07:22:04.474Z,940
2016-03-17T07:23:04.430Z,930
2016-03-17T07:24:04.480Z,940
2016-03-17T07:25:04.452Z,955
2016-03-17T07:26:04.471Z,995
2016-03-17T07:27:04.458Z,1015
2016-03-17T07:28:04.491Z,970
2016-03-17T07:29:04.463Z,990
2016-03-17T07:30:04.481Z,990
2016-03-17T07:31:04.468Z,1010
2016-03-17T07:32:04.518Z,1030
2016-03-17T07:33:04.490Z,1030
2016-03-17T07:34:04.507Z,1025
2016-03-17T07:35:04.525Z,1020
2016-03-17T07:36:04.497Z,1035
2016-03-17T07:37:04.515Z,1045
2016-03-17T07:38:04.518Z,910
2016-03-17T07:39:04.521Z,775
2016-03-17T07:40:04.554Z,785
2016-03-17T07:41:04.525Z,815
2016-03-17T07:42:04.559Z,840
2016-03-17T07:43:04.547Z,840
2016-03-17T07:44:04.565Z,800
2016-03-17T07:45:04.537Z,760
2016-03-17T07:46:04.586Z,765
2016-03-17T07:47:04.573Z,800
2016-03-17T07:48:04.592Z,845
2016-03-17T07:49:04.594Z,845
2016-03-17T07:50:04.597Z,800
2016-03-17T07:51:04.581Z,780
2016-03-17T07:52:04.602Z,805
2016-03-17T07:53:04.621Z,835
2016-03-17T07:54:04.638Z,845
2016-03-17T07:55:04.642Z,850
2016-03-17T07:56:04.611Z,865
2016-03-17T07:57:04.644Z,880
2016-03-17T07:58:04.616Z,865
2016-03-17T07:59:04.666Z,835
2016-03-17T08:00:04.652Z,835
2016-03-17T08:02:06.001Z,885
2016-03-17T08:03:04.660Z,875
2016-03-17T08:04:04.695Z,870
2016-03-17T08:05:04.682Z,850
2016-03-17T08:06:04.778Z,860
2016-03-17T08:07:05.270Z,880
2016-03-17T08:08:04.679Z,715
2016-03-17T08:09:04.697Z,380
2016-03-17T08:10:04.715Z,260
2016-03-17T08:11:07.609Z,260
2016-03-17T08:12:04.737Z,260
2016-03-17T08:13:06.162Z,255
2016-03-17T08:14:04.867Z,255
2016-03-17T08:15:05.495Z,255
2016-03-17T08:16:06.061Z,255
2016-03-17T08:17:19.175Z,255
2016-03-17T08:18:18.927Z,255
2016-03-17T08:19:05.646Z,255
2016-03-17T08:20:04.790Z,250
2016-03-17T08:21:33.108Z,250
2016-03-17T08:22:05.186Z,250
2016-03-17T08:23:04.922Z,250
2016-03-17T08:24:04.753Z,250
2016-03-17T08:25:04.771Z,250
2016-03-17T08:26:05.258Z,245
2016-03-17T08:27:07.043Z,245
2016-03-17T08:28:05.030Z,245
2016-03-17T08:29:05.408Z,245
2016-03-17T08:30:05.191Z,245
2016-03-17T08:31:04.772Z,245
2016-03-17T08:32:04.728Z,245
2016-03-17T08:33:04.949Z,245
2016-03-17T08:34:04.734Z,245
2016-03-17T08:35:04.752Z,245
2016-03-17T08:36:04.740Z,245
2016-03-17T08:37:04.743Z,250
2016-03-17T08:38:04.729Z,255
2016-03-17T08:39:04.748Z,255
2016-03-17T08:40:04.735Z,250
2016-03-17T08:41:04.596Z,250
2016-03-17T08:42:04.756Z,250
2016-03-17T08:43:04.726Z,250
2016-03-17T08:44:04.697Z,250
2016-03-17T08:45:04.701Z,250
2016-03-17T08:46:04.719Z,250
2016-03-17T08:47:04.737Z,250
2016-03-17T08:48:04.724Z,250
2016-03-17T08:49:04.711Z,250
2016-03-17T08:50:04.714Z,250
2016-03-17T08:51:04.701Z,250
2016-03-17T08:52:04.719Z,255
2016-03-17T08:53:04.706Z,255
2016-03-17T08:54:04.694Z,255
2016-03-17T08:55:04.681Z,255
2016-03-17T08:56:04.699Z,255
2016-03-17T08:57:04.702Z,255
2016-03-17T08:58:04.688Z,255
2016-03-17T08:59:04.691Z,255
2016-03-17T09:00:04.663Z,255
2016-03-17T09:01:04.650Z,255
2016-03-17T09:02:04.668Z,255
2016-03-17T09:03:04.671Z,255
2016-03-17T09:04:04.751Z,250
2016-03-17T09:05:04.661Z,250
2016-03-17T09:06:04.663Z,250
2016-03-17T09:07:04.640Z,250
2016-03-17T09:08:04.642Z,250
2016-03-17T09:09:04.646Z,250
2016-03-17T09:10:04.632Z,250
2016-03-17T09:11:04.651Z,250
2016-03-17T09:12:04.622Z,250
2016-03-17T09:13:04.640Z,250
2016-03-17T09:14:04.612Z,250
2016-03-17T09:15:04.631Z,250
2016-03-17T09:16:04.601Z,250
2016-03-17T09:17:04.604Z,245
2016-03-17T09:18:04.606Z,245
2016-03-17T09:19:04.469Z,245
2016-03-17T09:20:09.346Z,245
2016-03-17T09:21:06.458Z,240
2016-03-17T09:22:04.633Z,240
2016-03-17T09:23:07.573Z,240
2016-03-17T09:24:05.014Z,240
2016-03-17T09:25:05.344Z,240
2016-03-17T09:26:05.976Z,240
2016-03-17T09:27:04.572Z,240
2016-03-17T09:28:04.778Z,240
2016-03-17T09:29:04.578Z,240
2016-03-17T09:30:05.175Z,240
2016-03-17T09:31:05.005Z,240
2016-03-17T09:32:04.570Z,235
2016-03-17T09:33:05.729Z,235
2016-03-17T09:34:04.561Z,235
2016-03-17T09:35:04.797Z,235
2016-03-17T09:36:05.691Z,235
2016-03-17T09:37:05.740Z,235
2016-03-17T09:38:05.039Z,235
2016-03-17T09:39:04.511Z,235
2016-03-17T09:40:05.045Z,235
2016-03-17T09:41:04.642Z,235
2016-03-17T09:42:04.519Z,235
2016-03-17T09:43:04.522Z,235
2016-03-17T09:44:04.524Z,235
2016-03-17T09:45:20.433Z,235
2016-03-17T09:46:18.702Z,235
2016-03-17T09:47:04.813Z,235
2016-03-17T09:48:18.707Z,235
2016-03-17T09:49:05.210Z,235
2016-03-17T09:50:18.729Z,235
2016-03-17T09:51:04.481Z,230
2016-03-17T09:52:04.843Z,230
2016-03-17T09:53:04.502Z,230
2016-03-17T09:54:04.490Z,230
2016-03-17T09:55:04.461Z,230
2016-03-17T09:56:04.462Z,230
2016-03-17T09:57:04.465Z,230
2016-03-17T09:58:04.438Z,225
2016-03-17T09:59:04.471Z,225
2016-03-17T10:00:04.443Z,225
2016-03-17T10:01:04.461Z,225
2016-03-17T10:02:04.464Z,225
2016-03-17T10:03:04.435Z,225
2016-03-17T10:04:04.328Z,220
2016-03-17T10:05:04.440Z,220
2016-03-17T10:06:04.428Z,220
2016-03-17T10:07:04.430Z,220
2016-03-17T10:08:04.417Z,220
2016-03-17T10:09:04.436Z,220
2016-03-17T10:10:04.423Z,220
2016-03-17T10:11:04.441Z,220
2016-03-17T10:12:04.412Z,220
2016-03-17T10:13:04.384Z,220
2016-03-17T10:14:04.434Z,220
2016-03-17T10:15:04.248Z,220
2016-03-17T10:16:04.392Z,220
2016-03-17T10:17:04.254Z,220
2016-03-17T10:18:04.366Z,220
2016-03-17T10:19:04.431Z,220
2016-03-17T10:20:04.371Z,220
2016-03-17T10:21:04.390Z,215
2016-03-17T10:22:04.377Z,215
2016-03-17T10:23:04.395Z,215
2016-03-17T10:24:04.366Z,215
2016-03-17T10:25:04.337Z,210
2016-03-17T10:26:04.371Z,210
2016-03-17T10:27:04.359Z,210
2016-03-17T10:28:04.362Z,210
2016-03-17T10:29:04.365Z,210
2016-03-17T10:30:04.336Z,210
2016-03-17T10:31:04.323Z,205
2016-03-17T10:32:04.341Z,205
2016-03-17T10:33:04.313Z,205
2016-03-17T10:34:04.409Z,205
2016-03-17T10:35:04.349Z,205
2016-03-17T10:36:04.320Z,205
2016-03-17T10:37:04.292Z,205
2016-03-17T10:38:04.326Z,205
2016-03-17T10:39:05.892Z,205
2016-03-17T10:40:04.784Z,205
2016-03-17T10:41:05.584Z,205
2016-03-17T10:42:05.618Z,205
2016-03-17T10:43:05.261Z,200
2016-03-17T10:44:04.420Z,200
2016-03-17T10:45:04.283Z,200
2016-03-17T10:46:04.738Z,200
2016-03-17T10:47:04.428Z,200
2016-03-17T10:48:04.291Z,200
2016-03-17T10:49:06.388Z,200
2016-03-17T10:50:06.265Z,200
2016-03-17T10:51:05.752Z,200
2016-03-17T10:52:04.551Z,200
2016-03-17T10:53:04.851Z,200
2016-03-17T10:54:04.354Z,200
2016-03-17T10:55:05.247Z,200
2016-03-17T10:56:05.452Z,200
2016-03-17T10:57:18.674Z,200
2016-03-17T10:58:04.457Z,200
2016-03-17T10:59:04.649Z,200
2016-03-17T11:00:04.463Z,200
2016-03-17T11:01:04.232Z,200
2016-03-17T11:02:04.250Z,200
2016-03-17T11:03:04.206Z,200
2016-03-17T11:04:19.865Z,200
2016-03-17T11:05:18.461Z,200
2016-03-17T11:06:04.823Z,200
2016-03-17T11:07:05.217Z,200
2016-03-17T11:08:05.126Z,200
2016-03-17T11:09:04.256Z,200
2016-03-17T11:10:04.336Z,200
2016-03-17T11:11:04.543Z,200
2016-03-17T11:12:04.201Z,200
2016-03-17T11:13:04.189Z,195
2016-03-17T11:14:04.176Z,195
2016-03-17T11:15:04.194Z,195
2016-03-17T11:16:04.198Z,195
2016-03-17T11:17:04.184Z,195
2016-03-17T11:18:04.171Z,195
2016-03-17T11:19:04.189Z,195
2016-03-17T11:20:04.161Z,195
2016-03-17T11:21:04.179Z,195
2016-03-17T11:22:04.167Z,195
2016-03-17T11:23:04.184Z,195
2016-03-17T11:24:04.156Z,200
2016-03-17T11:25:04.174Z,195
2016-03-17T11:26:04.146Z,195
2016-03-17T11:27:04.163Z,195
2016-03-17T11:28:04.136Z,195
2016-03-17T11:29:04.154Z,195
2016-03-17T11:30:04.157Z,195
2016-03-17T11:31:04.144Z,195
2016-03-17T11:32:04.115Z,195
2016-03-17T11:33:04.148Z,195
2016-03-17T11:34:04.120Z,195
2016-03-17T11:35:04.107Z,195
2016-03-17T11:36:04.110Z,195
2016-03-17T11:37:04.113Z,195
2016-03-17T11:38:04.115Z,195
2016-03-17T11:39:04.118Z,195
2016-03-17T11:40:04.106Z,195
2016-03-17T11:41:04.140Z,195
2016-03-17T11:42:04.079Z,195
2016-03-17T11:43:04.098Z,195
2016-03-17T11:44:04.116Z,195
2016-03-17T11:45:04.103Z,195
2016-03-17T11:46:04.090Z,190
2016-03-17T11:47:04.078Z,190
2016-03-17T11:48:04.095Z,190
2016-03-17T11:49:04.067Z,195
2016-03-17T11:50:04.070Z,190
2016-03-17T11:51:04.088Z,190
2016-03-17T11:52:04.075Z,190
2016-03-17T11:53:04.078Z,190
2016-03-17T11:54:04.080Z,190
2016-03-17T11:55:04.036Z,190
2016-03-17T11:56:04.054Z,190
2016-03-17T11:57:04.119Z,190
2016-03-17T11:58:06.872Z,190
2016-03-17T11:59:05.891Z,190
2016-03-17T12:00:04.066Z,190
2016-03-17T12:01:04.682Z,190
2016-03-17T12:02:04.373Z,190
2016-03-17T12:03:04.687Z,190
2016-03-17T12:04:05.190Z,190
2016-03-17T12:05:04.334Z,190
2016-03-17T12:06:04.023Z,185
2016-03-17T12:07:04.073Z,185
2016-03-17T12:08:04.732Z,185
2016-03-17T12:09:04.485Z,185
2016-03-17T12:10:04.035Z,185
2016-03-17T12:11:05.053Z,185
2016-03-17T12:12:04.914Z,185
2016-03-17T12:13:04.277Z,185
2016-03-17T12:14:19.234Z,185
2016-03-17T12:15:04.048Z,185
2016-03-17T12:16:03.988Z,185
2016-03-17T12:17:04.772Z,185
2016-03-17T12:18:03.978Z,185
2016-03-17T12:19:04.418Z,185
2016-03-17T12:20:03.967Z,185
2016-03-17T12:21:03.986Z,185
2016-03-17T12:22:03.958Z,185
2016-03-17T12:23:18.725Z,185
2016-03-17T12:24:04.666Z,185
2016-03-17T12:25:03.810Z,185
2016-03-17T12:26:04.062Z,185
2016-03-17T12:27:03.955Z,185
2016-03-17T12:28:03.896Z,185
2016-03-17T12:29:04.101Z,185
2016-03-17T12:30:04.088Z,190
2016-03-17T12:31:03.966Z,185
2016-03-17T12:32:03.922Z,185
2016-03-17T12:33:03.924Z,185
2016-03-17T12:34:03.927Z,185
2016-03-17T12:35:03.929Z,185
2016-03-17T12:36:03.932Z,185
2016-03-17T12:37:03.920Z,185
2016-03-17T12:38:03.938Z,185
2016-03-17T12:39:03.909Z,185
2016-03-17T12:40:03.928Z,185
2016-03-17T12:41:03.931Z,180
2016-03-17T12:42:03.901Z,180
2016-03-17T12:43:03.921Z,180
2016-03-17T12:44:03.885Z,180
2016-03-17T12:45:03.907Z,180
2016-03-17T12:46:03.866Z,180
2016-03-17T12:47:03.871Z,185
2016-03-17T12:48:03.846Z,180
2016-03-17T12:49:03.811Z,180
2016-03-17T12:50:03.809Z,180
2016-03-17T12:51:03.808Z,180
2016-03-17T12:52:03.806Z,180
2016-03-17T12:53:03.788Z,180
2016-03-17T12:54:03.804Z,180
2016-03-17T12:55:03.789Z,180
2016-03-17T12:56:03.790Z,180
2016-03-17T12:57:03.792Z,180
2016-03-17T12:58:03.776Z,175
2016-03-17T12:59:03.764Z,175
2016-03-17T13:00:03.781Z,175
2016-03-17T13:01:03.782Z,175
2016-03-17T13:02:03.753Z,175
2016-03-17T13:03:03.771Z,175
2016-03-17T13:04:03.741Z,175
2016-03-17T13:05:03.760Z,180
2016-03-17T13:06:03.763Z,180
2016-03-17T13:07:03.914Z,180
2016-03-17T13:08:03.744Z,180
2016-03-17T13:09:03.762Z,180
2016-03-17T13:10:03.733Z,180
2016-03-17T13:11:03.736Z,175
2016-03-17T13:12:03.723Z,175
2016-03-17T13:13:03.726Z,175
2016-03-17T13:14:03.729Z,175
2016-03-17T13:15:03.731Z,175
2016-03-17T13:16:03.719Z,175
2016-03-17T13:17:04.549Z,175
2016-03-17T13:18:06.224Z,175
2016-03-17T13:19:04.257Z,175
2016-03-17T13:20:05.010Z,175
2016-03-17T13:21:04.702Z,175
2016-03-17T13:22:03.938Z,175
2016-03-17T13:23:03.877Z,175
2016-03-17T13:24:03.694Z,175
2016-03-17T13:25:03.727Z,175
2016-03-17T13:26:03.699Z,175
2016-03-17T13:27:05.000Z,175
2016-03-17T13:28:04.752Z,175
2016-03-17T13:29:04.114Z,175
2016-03-17T13:30:04.913Z,170
2016-03-17T13:31:03.932Z,170
2016-03-17T13:32:03.685Z,170
2016-03-17T13:33:05.030Z,170
2016-03-17T13:34:04.987Z,170
2016-03-17T13:35:04.208Z,170
2016-03-17T13:36:03.663Z,170
2016-03-17T13:37:03.948Z,170
2016-03-17T13:38:03.716Z,170
2016-03-17T13:39:03.672Z,170
2016-03-17T13:40:03.675Z,170
2016-03-17T13:41:03.631Z,170
2016-03-17T13:42:19.790Z,170
2016-03-17T13:43:17.823Z,170
2016-03-17T13:44:03.998Z,170
2016-03-17T13:45:17.875Z,170
2016-03-17T13:46:04.348Z,170
2016-03-17T13:47:17.818Z,170
2016-03-17T13:48:03.618Z,170
2016-03-17T13:49:03.698Z,170
2016-03-17T13:50:03.623Z,170
2016-03-17T13:51:03.625Z,170
2016-03-17T13:52:03.597Z,170
2016-03-17T13:53:03.647Z,170
2016-03-17T13:54:03.603Z,170
2016-03-17T13:55:03.637Z,165
2016-03-17T13:56:03.608Z,165
2016-03-17T13:57:03.611Z,165
2016-03-17T13:58:03.598Z,165
2016-03-17T13:59:03.600Z,165
2016-03-17T14:00:03.432Z,165
2016-03-17T14:01:03.622Z,165
2016-03-17T14:02:03.577Z,165
2016-03-17T14:03:03.611Z,165
2016-03-17T14:04:03.582Z,165
2016-03-17T14:05:03.570Z,165
2016-03-17T14:06:04.010Z,165
2016-03-17T14:07:03.591Z,160
2016-03-17T14:08:03.563Z,160
2016-03-17T14:09:03.581Z,160
2016-03-17T14:10:03.584Z,160
2016-03-17T14:11:03.570Z,160